createdAt,value
2019-04-23T00:02:20.595Z,3.53
2019-04-23T00:04:48.063Z,3.63
2019-04-23T00:07:39.177Z,3.47
2019-04-23T00:10:03.453Z,3.40
2019-04-23T00:12:40.853Z,3.73
2019-04-23T00:15:04.869Z,3.60
2019-04-23T00:20:03.842Z,3.60
2019-04-23T00:23:05.040Z,3.70
2019-04-23T00:25:49.239Z,3.50
2019-04-23T00:28:24.453Z,4.23
2019-04-23T00:33:18.627Z,3.80
2019-04-23T00:35:44.103Z,3.97
2019-04-23T00:38:18.349Z,3.93
2019-04-23T00:40:43.633Z,3.60
2019-04-23T00:45:59.346Z,3.27
2019-04-23T00:48:31.226Z,4.07
2019-04-23T00:50:58.517Z,3.40
2019-04-23T00:53:24.898Z,3.57
2019-04-23T00:56:03.637Z,3.93
2019-04-23T00:58:27.840Z,3.47
2019-04-23T01:00:53.984Z,3.90
2019-04-23T01:03:21.499Z,3.53
2019-04-23T01:05:52.273Z,4.23
2019-04-23T01:11:04.631Z,3.47
2019-04-23T01:13:39.423Z,3.90
2019-04-23T01:16:08.622Z,3.37
2019-04-23T01:21:03.324Z,3.30
2019-04-23T01:23:54.467Z,3.47
2019-04-23T01:26:46.112Z,3.70
2019-04-23T01:29:35.853Z,3.87
2019-04-23T01:31:47.984Z,3.40
2019-04-23T01:34:24.438Z,3.10
2019-04-23T01:36:54.163Z,3.40
2019-04-23T01:39:17.171Z,3.47
2019-04-23T01:41:57.429Z,3.60
2019-04-23T01:44:32.770Z,3.27
2019-04-23T01:46:54.497Z,3.67
2019-04-23T01:49:32.761Z,3.87
2019-04-23T01:54:25.986Z,3.13
2019-04-23T01:56:56.258Z,2.83
2019-04-23T01:59:31.654Z,2.93
2019-04-23T02:01:58.214Z,3.53
2019-04-23T02:04:28.521Z,3.40
2019-04-23T02:07:06.155Z,3.20
2019-04-23T02:12:07.469Z,3.10
2019-04-23T02:14:34.868Z,2.80
2019-04-23T02:17:10.180Z,2.80
2019-04-23T02:19:38.510Z,2.57
2019-04-23T02:22:46.336Z,3.07
2019-04-23T02:28:07.574Z,3.03
2019-04-23T02:33:22.985Z,3.33
2019-04-23T02:35:56.241Z,3.23
2019-04-23T02:40:55.004Z,3.03
2019-04-23T02:45:58.811Z,3.40
2019-04-23T02:48:24.813Z,3.10
2019-04-23T02:53:37.667Z,3.07
2019-04-23T02:58:26.411Z,2.67
2019-04-23T03:01:21.908Z,3.10
2019-04-23T03:05:57.702Z,2.90
2019-04-23T03:13:43.865Z,2.80
2019-04-23T03:17:15.164Z,3.00
2019-04-23T03:22:54.442Z,2.63
2019-04-23T03:44:49.722Z,2.83
2019-04-23T03:48:05.994Z,2.93
2019-04-23T03:54:26.001Z,2.40
2019-04-23T04:00:32.635Z,3.00
2019-04-23T04:10:00.201Z,2.77
2019-04-23T04:13:30.403Z,3.20
2019-04-23T04:18:38.763Z,2.50
2019-04-23T04:23:41.063Z,2.90
2019-04-23T04:26:05.275Z,3.23
2019-04-23T04:28:38.803Z,2.97
2019-04-23T04:31:04.920Z,3.20
2019-04-23T04:33:49.070Z,2.70
2019-04-23T04:36:14.037Z,3.00
2019-04-23T04:46:21.428Z,3.40
2019-04-23T04:58:58.468Z,2.90
2019-04-23T05:03:36.593Z,3.00
2019-04-23T05:08:54.651Z,3.40
2019-04-23T05:11:26.386Z,3.60
2019-04-23T05:16:19.323Z,3.60
2019-04-23T05:19:20.108Z,3.40
2019-04-23T05:21:46.649Z,2.80
2019-04-23T05:26:27.105Z,4.07
2019-04-23T05:29:04.867Z,3.80
2019-04-23T05:36:44.141Z,3.57
2019-04-23T05:39:19.280Z,3.27
2019-04-23T05:41:41.253Z,3.10
2019-04-23T05:44:19.659Z,3.87
2019-04-23T05:51:50.992Z,3.40
2019-04-23T05:56:46.862Z,3.10
2019-04-23T05:59:21.861Z,4.60
2019-04-23T06:09:25.260Z,3.80
2019-04-23T06:12:01.523Z,3.47
2019-04-23T06:14:25.868Z,3.60
2019-04-23T06:16:57.513Z,3.17
2019-04-23T06:19:21.075Z,3.80
2019-04-23T06:22:07.424Z,4.70
2019-04-23T06:27:06.922Z,3.60
2019-04-23T06:32:01.299Z,3.90
2019-04-23T06:34:36.370Z,4.03
2019-04-23T06:37:09.585Z,3.90
2019-04-23T06:39:42.832Z,3.80
2019-04-23T06:42:05.977Z,4.43
2019-04-23T06:47:22.051Z,4.13
2019-04-23T06:50:08.086Z,3.60
2019-04-23T06:52:21.272Z,4.50
2019-04-23T07:00:13.558Z,3.90
2019-04-23T07:02:34.316Z,4.33
2019-04-23T07:05:06.643Z,3.83
2019-04-23T07:10:06.044Z,3.47
2019-04-23T07:12:36.514Z,4.27
2019-04-23T07:15:25.103Z,3.50
2019-04-23T07:17:34.545Z,3.70
2019-04-23T07:20:08.271Z,4.10
2019-04-23T07:22:37.504Z,4.37
2019-04-23T07:25:14.097Z,4.30
2019-04-23T07:27:43.329Z,4.00
2019-04-23T07:30:17.145Z,4.37
2019-04-23T07:35:11.662Z,4.20
2019-04-23T07:37:54.557Z,3.47
2019-04-23T07:43:08.423Z,3.50
2019-04-23T07:45:54.858Z,4.30
2019-04-23T07:48:43.889Z,4.33
2019-04-23T07:50:57.884Z,3.60
2019-04-23T07:56:05.985Z,3.90
2019-04-23T07:58:28.580Z,4.20
2019-04-23T08:03:39.833Z,4.50
2019-04-23T08:06:00.572Z,3.83
2019-04-23T08:08:37.294Z,3.93
2019-04-23T08:11:30.922Z,3.50
2019-04-23T08:13:47.337Z,3.90
2019-04-23T08:16:25.973Z,4.50
2019-04-23T08:18:49.773Z,3.37
2019-04-23T08:21:15.126Z,3.73
2019-04-23T08:26:50.183Z,4.87
2019-04-23T08:29:19.451Z,4.20
2019-04-23T08:31:56.240Z,3.73
2019-04-23T08:34:30.731Z,3.50
2019-04-23T08:37:00.499Z,3.03
2019-04-23T08:39:24.942Z,3.60
2019-04-23T08:42:09.767Z,3.70
2019-04-23T08:44:49.441Z,3.93
2019-04-23T08:47:21.844Z,3.53
2019-04-23T08:49:47.688Z,3.60
2019-04-23T08:52:18.665Z,4.10
2019-04-23T08:57:21.433Z,3.90
2019-04-23T08:59:48.644Z,3.40
2019-04-23T09:02:30.821Z,3.70
2019-04-23T09:04:53.864Z,4.13
2019-04-23T09:07:27.965Z,4.00
2019-04-23T09:09:56.835Z,3.90
2019-04-23T09:12:31.564Z,3.70
2019-04-23T09:14:59.046Z,3.83
2019-04-23T09:20:13.194Z,3.80
2019-04-23T09:25:02.710Z,4.17
2019-04-23T09:27:33.230Z,3.80
2019-04-23T09:30:11.089Z,4.70
2019-04-23T09:35:46.749Z,3.83
2019-04-23T09:38:25.414Z,3.40
2019-04-23T09:47:01.935Z,3.90
2019-04-23T09:49:39.480Z,3.70
2019-04-23T09:52:00.753Z,3.50
2019-04-23T09:54:32.530Z,4.03
2019-04-23T09:56:57.428Z,3.70
2019-04-23T10:01:55.057Z,4.10
2019-04-23T10:04:26.535Z,4.07
2019-04-23T10:06:55.337Z,3.93
2019-04-23T10:09:12.649Z,4.07
2019-04-23T10:11:43.118Z,4.27
2019-04-23T10:14:14.478Z,3.23
2019-04-23T10:16:45.061Z,3.50
2019-04-23T10:19:15.081Z,3.60
2019-04-23T10:21:46.721Z,3.43
2019-04-23T10:24:17.075Z,4.23
2019-04-23T10:26:48.028Z,3.50
2019-04-23T10:29:23.866Z,4.60
2019-04-23T10:31:53.694Z,3.50
2019-04-23T10:34:23.368Z,3.47
2019-04-23T10:36:53.614Z,3.50
2019-04-23T10:39:29.841Z,4.37
2019-04-23T10:41:56.738Z,3.97
2019-04-23T10:44:40.705Z,3.63
2019-04-23T10:48:10.150Z,4.17
2019-04-23T10:50:44.480Z,4.13
2019-04-23T10:53:23.455Z,4.77
2019-04-23T10:55:45.082Z,3.60
2019-04-23T10:58:08.342Z,3.50
2019-04-23T11:00:44.974Z,3.50
2019-04-23T11:03:20.581Z,3.93
2019-04-23T11:05:56.330Z,4.23
2019-04-23T11:08:10.469Z,3.40
2019-04-23T11:10:44.584Z,3.60
2019-04-23T11:13:25.733Z,4.13
2019-04-23T11:16:11.029Z,4.00
2019-04-23T11:18:40.183Z,4.20
2019-04-23T11:20:56.709Z,3.73
2019-04-23T11:23:29.107Z,4.50
2019-04-23T11:25:56.112Z,4.07
2019-04-23T11:28:33.030Z,3.63
2019-04-23T11:31:17.155Z,4.10
2019-04-23T11:33:40.279Z,3.70
2019-04-23T11:41:20.745Z,4.67
2019-04-23T11:43:38.072Z,3.90
2019-04-23T11:53:52.525Z,4.03
2019-04-23T11:56:48.833Z,3.53
2019-04-23T11:58:44.572Z,3.60
2019-04-23T12:07:29.729Z,3.43
2019-04-23T12:10:29.064Z,3.40
2019-04-23T12:12:46.009Z,3.97
2019-04-23T12:15:32.061Z,4.40
2019-04-23T12:20:31.875Z,3.57
2019-04-23T12:23:07.462Z,3.70
2019-04-23T12:25:32.531Z,3.20
2019-04-23T12:27:46.956Z,3.50
2019-04-23T12:33:08.549Z,4.17
2019-04-23T12:35:35.518Z,3.40
2019-04-23T12:38:11.535Z,3.40
2019-04-23T12:40:40.464Z,3.80
2019-04-23T12:48:25.656Z,4.00
2019-04-23T12:53:29.301Z,3.90
2019-04-23T12:55:43.745Z,4.00
2019-04-23T13:00:52.766Z,3.70
2019-04-23T13:05:49.151Z,3.77
2019-04-23T13:08:41.544Z,3.47
2019-04-23T13:11:01.625Z,3.60
2019-04-23T13:16:02.521Z,3.03
2019-04-23T13:21:07.042Z,3.97
2019-04-23T13:23:47.007Z,4.10
2019-04-23T13:26:05.688Z,3.77
2019-04-23T13:31:12.462Z,3.40
2019-04-23T13:33:43.847Z,3.47
2019-04-23T13:43:47.933Z,3.80
2019-04-23T13:48:46.996Z,3.50
2019-04-23T13:51:28.269Z,3.80
2019-04-23T13:53:53.656Z,3.60
2019-04-23T13:56:36.701Z,3.93
2019-04-23T13:59:08.622Z,3.50
2019-04-23T14:01:35.577Z,4.00
2019-04-23T14:04:29.533Z,3.30
2019-04-23T14:06:47.535Z,3.37
2019-04-23T14:09:20.071Z,3.17
2019-04-23T14:11:40.024Z,3.30
2019-04-23T14:14:34.510Z,3.70
2019-04-23T14:17:18.007Z,3.47
2019-04-23T14:19:16.479Z,3.47
2019-04-23T14:21:51.812Z,3.43
2019-04-23T14:24:32.606Z,3.23
2019-04-23T14:26:59.570Z,3.70
2019-04-23T14:29:31.900Z,3.27
2019-04-23T14:32:04.312Z,3.97
2019-04-23T14:34:29.223Z,3.40
2019-04-23T14:37:09.215Z,3.23
2019-04-23T14:39:32.077Z,3.20
2019-04-23T14:44:40.544Z,3.27
2019-04-23T14:47:24.072Z,3.33
2019-04-23T14:50:18.612Z,3.70
2019-04-23T14:55:35.592Z,3.10
2019-04-23T14:57:35.301Z,3.33
2019-04-23T15:00:03.287Z,2.90
2019-04-23T15:05:05.693Z,3.80
2019-04-23T15:07:38.135Z,3.60
2019-04-23T15:10:12.838Z,3.10
2019-04-23T15:12:36.582Z,3.53
2019-04-23T15:15:12.711Z,2.93
2019-04-23T15:20:14.956Z,3.70
2019-04-23T15:23:14.374Z,3.13
2019-04-23T15:30:08.696Z,2.90
2019-04-23T15:40:22.996Z,3.33
2019-04-23T15:42:55.626Z,3.10
2019-04-23T15:45:21.353Z,3.30
2019-04-23T15:50:28.395Z,3.10
2019-04-23T15:52:58.181Z,3.27
2019-04-23T15:55:27.592Z,3.67
2019-04-23T15:58:09.852Z,3.63
2019-04-23T16:00:32.868Z,2.97
2019-04-23T16:02:36.088Z,2.93
2019-04-23T16:05:08.418Z,3.43
2019-04-23T16:07:55.785Z,3.20
2019-04-23T16:10:45.425Z,3.20
2019-04-23T16:13:13.580Z,3.50
2019-04-23T16:15:43.463Z,3.67
2019-04-23T16:18:37.177Z,3.67
2019-04-23T16:21:14.472Z,2.73
2019-04-23T16:23:59.383Z,3.10
2019-04-23T16:26:24.176Z,2.80
2019-04-23T16:31:33.495Z,3.23
2019-04-23T16:34:20.819Z,2.97
2019-04-23T16:36:54.684Z,2.87
2019-04-23T16:39:22.145Z,2.80
2019-04-23T16:41:47.460Z,2.90
2019-04-23T16:44:21.901Z,3.20
2019-04-23T16:49:46.116Z,2.67
2019-04-23T16:51:47.561Z,2.57
2019-04-23T16:54:32.533Z,2.70
2019-04-23T16:57:13.198Z,2.83
2019-04-23T16:59:32.842Z,2.90
2019-04-23T17:04:34.559Z,2.60
2019-04-23T17:07:02.351Z,3.20
2019-04-23T17:09:42.697Z,2.53
2019-04-23T17:14:38.076Z,2.73
2019-04-23T17:17:08.102Z,2.90
2019-04-23T17:19:40.140Z,2.80
2019-04-23T17:22:13.583Z,3.00
2019-04-23T17:24:40.561Z,4.77
2019-04-23T17:27:16.698Z,2.97
2019-04-23T17:29:41.946Z,2.73
2019-04-23T17:32:14.939Z,3.37
2019-04-23T17:35:17.846Z,2.90
2019-04-23T17:38:00.477Z,3.07
2019-04-23T17:40:39.695Z,3.30
2019-04-23T17:43:08.868Z,3.90
2019-04-23T17:48:15.730Z,4.80
2019-04-23T17:51:02.673Z,4.40
2019-04-23T17:53:25.369Z,4.40
2019-04-23T17:56:13.536Z,3.90
2019-04-23T17:58:28.592Z,3.77
2019-04-23T18:03:45.515Z,3.50
2019-04-23T18:06:21.635Z,3.70
2019-04-23T18:08:43.544Z,3.23
2019-04-23T18:11:16.300Z,3.40
2019-04-23T18:13:46.380Z,3.00
2019-04-23T18:16:21.908Z,2.80
2019-04-23T18:18:59.066Z,3.27
2019-04-23T18:21:53.259Z,2.97
2019-04-23T18:24:26.003Z,3.30
2019-04-23T18:29:59.754Z,2.80
2019-04-23T18:33:00.216Z,3.00
2019-04-23T18:37:29.819Z,2.70
2019-04-23T18:40:01.574Z,2.97
2019-04-23T18:45:07.158Z,2.97
2019-04-23T18:47:40.534Z,2.90
2019-04-23T18:50:19.515Z,2.60
2019-04-23T18:53:00.772Z,2.77
2019-04-23T18:55:19.170Z,2.90
2019-04-23T18:57:48.660Z,2.80
2019-04-23T19:00:18.756Z,3.20
2019-04-23T19:03:10.763Z,2.70
2019-04-23T19:05:49.517Z,2.73
2019-04-23T19:08:42.457Z,2.80
2019-04-23T19:10:57.460Z,2.53
2019-04-23T19:13:31.205Z,2.80
2019-04-23T19:15:52.549Z,2.90
2019-04-23T19:18:40.460Z,2.90
2019-04-23T19:21:08.683Z,2.60
2019-04-23T19:23:39.441Z,2.90
2019-04-23T19:26:07.981Z,2.83
2019-04-23T19:31:46.060Z,2.70
2019-04-23T19:36:54.651Z,2.93
2019-04-23T19:39:32.113Z,2.80
2019-04-23T19:41:55.676Z,2.70
2019-04-23T19:44:15.924Z,2.40
2019-04-23T19:56:55.157Z,2.80
2019-04-23T19:59:31.574Z,2.53
2019-04-23T20:04:39.181Z,2.33
2019-04-23T20:12:05.969Z,2.57
2019-04-23T20:19:58.735Z,2.10
2019-04-23T20:30:23.479Z,2.30
2019-04-23T20:33:33.444Z,2.27
2019-04-23T20:35:13.121Z,2.23
2019-04-23T20:40:23.716Z,2.50
2019-04-23T20:42:54.923Z,2.67
2019-04-23T20:45:24.498Z,2.20
2019-04-23T20:47:56.230Z,2.70
2019-04-23T20:50:31.484Z,2.10
2019-04-23T20:52:51.523Z,2.30
2019-04-23T20:55:45.309Z,2.23
2019-04-23T20:58:14.058Z,2.20
2019-04-23T21:01:05.114Z,2.50
2019-04-23T21:03:41.494Z,2.20
2019-04-23T21:06:07.161Z,2.33
2019-04-23T21:08:51.864Z,2.53
2019-04-23T21:10:55.670Z,2.60
2019-04-23T21:13:53.881Z,2.80
2019-04-23T21:16:08.285Z,2.90
2019-04-23T21:21:13.591Z,3.43
2019-04-23T21:23:44.069Z,4.40
2019-04-23T21:26:01.586Z,4.10
2019-04-23T21:28:44.072Z,4.33
2019-04-23T21:31:35.482Z,4.37
2019-04-23T21:33:56.887Z,4.13
2019-04-23T21:36:57.801Z,4.20
2019-04-23T21:39:54.104Z,4.63
2019-04-23T21:45:04.585Z,4.27
2019-04-23T21:47:51.766Z,5.37
2019-04-23T21:50:19.209Z,4.80
2019-04-23T21:52:44.572Z,5.27
2019-04-23T21:55:09.798Z,4.80
2019-04-23T21:57:53.826Z,5.37
2019-04-23T22:00:13.817Z,5.13
2019-04-23T22:02:59.435Z,4.90
2019-04-23T22:05:25.027Z,5.93
2019-04-23T22:08:03.548Z,4.90
2019-04-23T22:10:20.287Z,5.30
2019-04-23T22:13:02.643Z,5.77
2019-04-23T22:15:34.565Z,5.60
2019-04-23T22:17:50.090Z,5.43
2019-04-23T22:20:34.729Z,4.60
2019-04-23T22:23:05.473Z,5.50
2019-04-23T22:25:34.811Z,6.20
2019-04-23T22:28:08.304Z,4.90
2019-04-23T22:30:45.209Z,5.43
2019-04-23T22:33:18.036Z,5.00
2019-04-23T22:35:37.846Z,5.80
2019-04-23T22:38:12.865Z,5.23
2019-04-23T22:40:35.505Z,4.73
2019-04-23T22:43:15.034Z,4.93
2019-04-23T22:45:44.379Z,5.10
2019-04-23T22:48:11.088Z,4.07
2019-04-23T22:50:47.131Z,4.80
2019-04-23T22:55:51.406Z,5.10
2019-04-23T22:58:09.611Z,4.10
2019-04-23T23:01:15.907Z,4.60
2019-04-23T23:03:41.885Z,5.10
2019-04-23T23:08:57.465Z,4.33
2019-04-23T23:11:08.498Z,5.10
2019-04-23T23:13:58.617Z,4.53
2019-04-23T23:18:40.456Z,4.03
2019-04-23T23:21:16.373Z,4.77
2019-04-23T23:23:48.130Z,3.90
2019-04-23T23:26:16.973Z,4.10
2019-04-23T23:28:44.664Z,4.53
2019-04-23T23:33:54.226Z,4.20
2019-04-23T23:36:23.361Z,3.30
2019-04-23T23:39:00.029Z,3.60
2019-04-23T23:41:28.709Z,3.73
2019-04-23T23:44:20.888Z,3.70
2019-04-23T23:46:47.107Z,3.17
2019-04-23T23:48:59.102Z,3.70
2019-04-23T23:51:29.105Z,3.40
2019-04-23T23:56:47.005Z,4.13
2019-04-23T23:59:10.636Z,3.90
